Time;durP1;ratioP1;P1;durP2;ratioP2;P2;SDS_P1;SDS_P2;PMS_P1;PMS_P2;Temp;Humidity;BMP_temperature;BMP_pressure;BME280_temperature;BME280_humidity;BME280_pressure;Samples;Min_cycle;Max_cycle;Signal;HPM_P1;HPM_P2
2023/09/05 00:02:28;;;;;;;6.10;4.63;;;17.20;99.80;;;16.84;73.20;101675.97;5096293;28;20847;-72
2023/09/05 00:05:00;;;;;;;5.70;4.60;;;17.00;99.90;;;16.90;72.47;101666.28;5096002;28;20861;-72
2023/09/05 00:07:35;;;;;;;6.18;4.57;;;16.90;99.90;;;16.90;72.53;101677.09;5095726;28;20463;-71
2023/09/05 00:10:11;;;;;;;5.63;4.67;;;17.00;99.90;;;16.93;72.82;101676.75;5096365;28;20426;-73
2023/09/05 00:12:46;;;;;;;6.53;4.80;;;17.00;99.90;;;16.88;71.57;101673.75;5095667;28;20431;-73
2023/09/05 00:15:19;;;;;;;5.53;4.70;;;17.00;99.90;;;16.86;72.82;101683.88;5095956;28;20447;-73
2023/09/05 00:17:50;;;;;;;5.00;4.23;;;16.90;99.90;;;16.88;72.38;101674.59;5096793;28;20514;-72
2023/09/05 00:20:22;;;;;;;5.22;4.63;;;17.00;99.90;;;16.91;72.62;101671.53;5096033;28;20475;-72
2023/09/05 00:22:55;;;;;;;7.88;4.55;;;17.00;99.90;;;16.94;72.24;101673.03;5095707;28;20921;-72
2023/09/05 00:25:27;;;;;;;8.60;4.60;;;17.10;99.90;;;17.08;71.04;101674.97;5095774;28;20507;-72
2023/09/05 00:28:00;;;;;;;6.38;4.90;;;17.20;99.90;;;17.00;71.99;101678.56;5095261;28;20519;-72
2023/09/05 00:30:34;;;;;;;7.38;5.07;;;17.20;99.80;;;16.82;71.56;101672.56;5095271;28;20884;-72
2023/09/05 00:33:06;;;;;;;6.60;4.72;;;16.90;99.80;;;16.66;73.28;101675.38;5095380;28;20460;-72
2023/09/05 00:35:38;;;;;;;6.40;5.05;;;16.70;99.90;;;16.71;71.96;101673.81;5094789;28;20436;-72
2023/09/05 00:38:11;;;;;;;6.85;4.75;;;16.80;99.90;;;16.71;73.13;101683.81;5095096;28;20419;-72
2023/09/05 00:40:43;;;;;;;8.23;4.95;;;16.80;99.90;;;16.69;72.50;101681.28;5095056;28;20449;-72
2023/09/05 00:43:15;;;;;;;5.93;4.83;;;16.80;99.90;;;16.62;72.69;101682.16;5095776;28;20443;-72
2023/09/05 00:45:52;;;;;;;7.45;4.90;;;16.70;99.90;;;16.62;72.26;101669.50;5095444;28;20416;-72
2023/09/05 00:48:27;;;;;;;7.13;4.97;;;16.80;99.90;;;16.52;74.09;101668.84;5095221;28;20474;-72
2023/09/05 00:50:59;;;;;;;5.72;4.90;;;16.60;99.90;;;16.51;73.07;101671.69;5094810;28;20435;-71
2023/09/05 00:53:32;;;;;;;6.72;4.70;;;16.60;99.90;;;16.66;72.86;101676.22;5094921;28;20425;-72
2023/09/05 00:56:04;;;;;;;6.00;4.45;;;16.80;99.90;;;16.51;73.61;101664.44;5094269;28;20455;-72
2023/09/05 00:58:36;;;;;;;5.57;4.60;;;16.60;99.90;;;16.73;71.63;101682.63;5095504;28;20428;-72
2023/09/05 01:01:08;;;;;;;6.07;4.67;;;16.90;99.90;;;16.54;73.08;101672.19;5094631;28;20528;-72
2023/09/05 01:03:40;;;;;;;5.97;4.85;;;16.70;99.90;;;16.57;72.34;101677.31;5093896;28;20429;-72
2023/09/05 01:06:22;;;;;;;6.75;4.72;;;16.70;99.90;;;16.54;72.15;101665.97;5095429;28;20519;-72
2023/09/05 01:09:08;;;;;;;8.05;4.90;;;17.00;99.90;;;16.63;72.99;101671.19;5094201;28;20834;-72
2023/09/05 01:11:42;;;;;;;5.80;4.75;;;16.80;99.90;;;16.34;73.80;101664.69;5094446;28;20428;-72
2023/09/05 01:14:14;;;;;;;6.82;5.00;;;16.50;99.90;;;16.31;73.99;101665.88;5094593;28;20500;-72
2023/09/05 01:16:46;;;;;;;6.50;5.13;;;16.40;99.90;;;16.20;75.69;101663.56;5094563;28;20428;-73
2023/09/05 01:19:20;;;;;;;5.55;4.72;;;16.30;99.90;;;16.14;75.27;101665.09;5094570;28;20512;-73
2023/09/05 01:22:10;;;;;;;7.28;5.03;;;16.20;99.90;;;16.28;74.06;101660.84;5094416;28;20517;-73
2023/09/05 01:24:47;;;;;;;6.20;4.80;;;16.80;99.90;;;16.35;74.00;101651.00;5094128;28;20421;-73
2023/09/05 01:27:22;;;;;;;6.25;4.60;;;16.50;99.90;;;16.34;73.41;101652.00;5094110;28;20470;-73
2023/09/05 01:29:56;;;;;;;6.20;4.55;;;16.60;99.90;;;16.29;74.03;101657.13;5094651;28;20431;-73
2023/09/05 01:32:28;;;;;;;5.70;4.63;;;16.50;99.90;;;16.30;74.11;101658.78;5094446;28;20474;-73
2023/09/05 01:35:00;;;;;;;5.70;4.85;;;16.40;99.90;;;16.09;74.41;101659.41;5093924;28;20447;-73
2023/09/05 01:37:32;;;;;;;5.68;4.47;;;16.20;99.90;;;16.15;73.68;101642.47;5094005;28;20520;-73
2023/09/05 01:40:05;;;;;;;4.97;4.47;;;16.40;99.90;;;16.16;73.76;101648.72;5093832;28;20886;-73
2023/09/05 01:42:38;;;;;;;5.60;4.50;;;16.30;99.90;;;15.99;75.66;101639.00;5093902;28;20455;-73
2023/09/05 01:45:12;;;;;;;6.55;5.00;;;16.10;99.90;;;16.08;74.74;101648.75;5093863;28;20420;-73
2023/09/05 01:47:44;;;;;;;7.00;4.80;;;16.20;99.90;;;16.05;74.53;101649.09;5094134;28;20982;-73
2023/09/05 01:50:16;;;;;;;4.90;4.20;;;16.20;99.90;;;16.19;73.19;101645.69;5094369;28;20507;-72
2023/09/05 01:52:48;;;;;;;6.97;4.68;;;16.40;99.90;;;16.22;73.90;101651.56;5094337;28;20536;-72
2023/09/05 01:55:21;;;;;;;5.90;4.70;;;16.40;99.90;;;16.06;74.60;101650.78;5093155;28;20444;-72
2023/09/05 01:57:53;;;;;;;6.15;4.80;;;16.20;99.90;;;15.98;74.96;101642.72;5093543;28;20512;-72
2023/09/05 02:00:25;;;;;;;6.57;4.60;;;16.10;99.90;;;16.02;74.17;101644.91;5094048;28;20431;-73
2023/09/05 02:02:57;;;;;;;7.80;4.82;;;16.20;99.90;;;15.74;75.54;101646.31;5093447;28;20425;-72
2023/09/05 02:05:29;;;;;;;6.00;4.82;;;15.90;99.90;;;15.66;76.85;101633.66;5093666;28;20428;-72
2023/09/05 02:08:01;;;;;;;7.10;4.75;;;15.70;99.90;;;15.78;75.39;101636.84;5093081;28;20507;-72
2023/09/05 02:10:34;;;;;;;5.33;4.40;;;16.10;99.90;;;15.81;75.27;101644.63;5094594;28;20639;-72
2023/09/05 02:13:06;;;;;;;5.65;4.75;;;16.00;99.90;;;15.67;75.26;101635.38;5093609;28;20515;-72
2023/09/05 02:15:39;;;;;;;5.70;5.15;;;15.90;99.90;;;15.62;75.65;101640.41;5093265;28;20440;-72
2023/09/05 02:18:11;;;;;;;5.82;4.85;;;15.80;99.90;;;15.65;76.47;101637.38;5093496;28;20503;-72
2023/09/05 02:20:43;;;;;;;5.68;4.40;;;15.90;99.90;;;15.54;76.42;101629.66;5093598;28;20500;-72
2023/09/05 02:23:15;;;;;;;6.70;4.95;;;15.70;99.90;;;15.61;77.75;101635.22;5093186;28;20515;-72
2023/09/05 02:25:58;;;;;;;6.60;5.38;;;15.70;99.90;;;15.45;78.31;101627.94;5093062;28;20495;-72
2023/09/05 02:28:31;;;;;;;6.43;4.60;;;15.50;99.90;;;15.49;77.54;101632.00;5093329;28;20519;-73
2023/09/05 02:31:07;;;;;;;5.88;4.97;;;15.60;99.90;;;15.63;77.54;101630.47;5093940;28;20853;-72
2023/09/05 02:33:40;;;;;;;6.88;4.88;;;15.80;99.90;;;15.71;75.35;101630.47;5093271;28;20427;-72
2023/09/05 02:36:17;;;;;;;6.30;5.00;;;16.00;99.90;;;15.65;76.67;101626.56;5093552;28;20446;-72
2023/09/05 02:38:49;;;;;;;6.07;4.83;;;15.90;99.90;;;15.65;76.29;101621.16;5094189;28;20662;-72
2023/09/05 02:41:22;;;;;;;5.20;4.70;;;15.80;99.90;;;15.68;76.10;101620.00;5092769;28;20455;-72
2023/09/05 02:43:55;;;;;;;6.60;4.85;;;15.80;99.90;;;15.69;76.13;101622.53;5092341;28;20786;-73
2023/09/05 02:46:27;;;;;;;7.33;5.27;;;15.90;99.90;;;15.58;76.85;101616.66;5093682;28;20482;-73
2023/09/05 02:48:59;;;;;;;6.43;5.20;;;15.80;99.90;;;15.45;78.49;101608.19;5092332;28;20487;-74
2023/09/05 02:51:31;;;;;;;6.90;4.97;;;15.60;99.90;;;15.41;77.18;101606.88;5092739;28;20425;-74
2023/09/05 02:54:03;;;;;;;5.40;4.90;;;15.60;99.90;;;15.47;77.52;101616.97;5093285;28;20438;-74
2023/09/05 02:56:36;;;;;;;7.20;5.50;;;15.60;99.90;;;15.39;77.38;101615.13;5092943;28;20448;-74
2023/09/05 02:59:08;;;;;;;7.57;5.20;;;15.60;99.90;;;15.47;78.28;101622.38;5092500;28;20421;-73
2023/09/05 03:01:41;;;;;;;6.80;4.90;;;15.60;99.90;;;15.42;77.77;101622.03;5093518;28;20516;-73
2023/09/05 03:04:14;;;;;;;7.18;4.97;;;15.60;99.90;;;15.37;78.13;101616.31;5092527;28;20430;-73
2023/09/05 03:06:46;;;;;;;6.57;5.20;;;15.50;99.90;;;15.47;77.64;101617.81;5092224;28;20588;-73
2023/09/05 03:09:18;;;;;;;6.00;5.40;;;15.70;99.90;;;15.48;77.57;101619.50;5092595;28;20443;-73
2023/09/05 03:11:52;;;;;;;6.95;4.85;;;15.70;99.90;;;15.36;78.57;101626.25;5092852;28;20790;-73
2023/09/05 03:14:23;;;;;;;7.85;5.88;;;15.50;99.90;;;15.28;78.84;101623.56;5092194;28;20856;-73
2023/09/05 03:16:55;;;;;;;5.88;5.28;;;15.50;99.90;;;15.27;77.78;101621.88;5092297;28;20528;-73
2023/09/05 03:19:28;;;;;;;5.97;5.30;;;15.50;99.90;;;15.23;78.05;101623.25;5092427;28;20424;-73
2023/09/05 03:22:00;;;;;;;6.85;5.05;;;15.40;99.90;;;15.12;80.03;101620.88;5092237;28;20425;-73
2023/09/05 03:24:32;;;;;;;7.32;5.43;;;15.30;99.90;;;15.13;78.47;101619.88;5092511;28;20420;-73
2023/09/05 03:27:06;;;;;;;7.38;5.43;;;15.30;99.90;;;15.13;78.67;101619.88;5092856;28;20837;-73
2023/09/05 03:29:38;;;;;;;6.00;5.40;;;15.40;99.90;;;15.04;79.20;101613.59;5096883;28;20427;-74
2023/09/05 03:32:10;;;;;;;6.38;5.70;;;15.30;99.90;;;15.11;79.61;101622.72;5096966;28;20420;-74
2023/09/05 03:34:48;;;;;;;6.57;5.88;;;15.30;99.90;;;15.14;79.63;101626.91;5097510;28;20413;-74
2023/09/05 03:37:20;;;;;;;6.60;5.65;;;15.40;99.90;;;15.13;79.66;101625.25;5097134;28;20472;-74
2023/09/05 03:39:53;;;;;;;7.78;6.30;;;15.40;99.90;;;15.11;79.17;101633.50;5096638;28;20798;-74
2023/09/05 03:42:27;;;;;;;6.80;6.10;;;15.40;99.90;;;15.06;79.60;101627.78;5096073;28;20908;-74
2023/09/05 03:44:59;;;;;;;10.48;6.40;;;15.30;99.90;;;15.10;80.00;101631.00;5096256;28;20504;-74
2023/09/05 03:47:31;;;;;;;7.60;6.15;;;15.40;99.90;;;15.10;79.16;101626.41;5096234;28;20499;-74
2023/09/05 03:50:03;;;;;;;6.90;6.03;;;15.40;99.90;;;15.12;79.46;101629.81;5097369;28;20288;-74
2023/09/05 03:52:35;;;;;;;8.55;6.35;;;15.40;99.90;;;15.10;80.19;101615.63;5096089;28;20424;-74
2023/09/05 03:55:07;;;;;;;7.75;6.43;;;15.30;99.90;;;15.13;79.55;101618.00;5095905;28;20970;-73
2023/09/05 03:57:40;;;;;;;7.73;6.20;;;15.50;99.90;;;15.12;79.79;101619.03;5096018;28;20487;-73
2023/09/05 04:00:13;;;;;;;6.65;6.05;;;15.50;99.90;;;15.12;80.02;101620.88;5096982;28;20523;-73
2023/09/05 04:02:45;;;;;;;6.72;5.80;;;15.40;99.90;;;15.16;78.18;101616.81;5096286;28;20512;-73
2023/09/05 04:05:22;;;;;;;7.05;5.68;;;15.50;99.90;;;15.08;78.79;101619.50;5096292;28;20511;-73
2023/09/05 04:07:53;;;;;;;8.30;6.10;;;15.30;99.90;;;14.99;80.52;101623.22;5096064;28;20417;-73
2023/09/05 04:10:25;;;;;;;7.97;6.22;;;15.20;99.90;;;15.00;79.84;101624.91;5096206;28;20844;-73
2023/09/05 04:12:59;;;;;;;6.85;6.03;;;15.20;99.90;;;14.92;79.83;101616.81;5095739;28;20448;-73
2023/09/05 04:15:30;;;;;;;6.60;5.90;;;15.10;99.90;;;14.91;79.07;101613.28;5095619;28;20516;-73
2023/09/05 04:18:02;;;;;;;6.70;6.00;;;15.20;99.90;;;14.84;79.45;101614.94;5095523;28;20440;-74
2023/09/05 04:20:34;;;;;;;7.00;5.65;;;15.10;99.90;;;14.78;80.08;101610.22;5096038;28;20508;-73
2023/09/05 04:23:06;;;;;;;7.20;5.40;;;15.00;99.90;;;14.70;80.25;101611.06;5096120;28;20432;-73
2023/09/05 04:25:41;;;;;;;7.93;5.93;;;14.90;99.90;;;14.64;79.82;101621.66;5095552;28;20464;-73
2023/09/05 04:28:16;;;;;;;15.07;6.20;;;14.90;99.90;;;14.74;79.09;101608.88;5098460;28;20942;-74
2023/09/05 04:30:47;;;;;;;7.00;5.32;;;15.00;99.90;;;14.73;79.95;101609.06;5095649;28;20519;-74
2023/09/05 04:33:19;;;;;;;6.07;5.45;;;15.00;99.90;;;14.76;79.35;101611.41;5096096;28;20431;-74
2023/09/05 04:35:51;;;;;;;7.80;5.40;;;15.00;99.90;;;14.78;79.04;101617.47;5095501;28;20417;-74
2023/09/05 04:38:23;;;;;;;6.88;6.07;;;15.00;99.90;;;14.56;80.22;101610.84;5094488;28;20423;-74
2023/09/05 04:41:00;;;;;;;8.52;6.40;;;14.80;99.90;;;14.39;81.66;101612.66;5095094;28;20531;-74
2023/09/05 04:43:34;;;;;;;6.28;5.20;;;14.60;99.90;;;14.51;81.17;101614.06;5095401;28;20432;-74
2023/09/05 04:46:08;;;;;;;7.13;5.60;;;14.70;99.90;;;14.39;81.55;101614.50;5095314;28;20839;-74
2023/09/05 04:48:40;;;;;;;8.37;5.57;;;14.60;99.90;;;14.40;81.58;101614.34;5095027;28;20420;-74
2023/09/05 04:51:12;;;;;;;6.00;4.77;;;14.60;99.90;;;14.52;80.61;101610.34;5096252;28;20280;-74
2023/09/05 04:53:45;;;;;;;6.13;5.53;;;14.80;99.90;;;14.44;81.85;101607.63;5094447;28;20425;-73
2023/09/05 04:56:17;;;;;;;6.28;5.50;;;14.70;99.90;;;14.42;81.19;101609.63;5094844;28;20424;-74
2023/09/05 04:58:51;;;;;;;5.18;4.68;;;14.70;99.90;;;14.51;80.88;101614.06;5095426;28;20504;-74
2023/09/05 05:01:23;;;;;;;6.53;5.40;;;14.80;99.90;;;14.42;81.81;101609.63;5095268;28;20425;-74
2023/09/05 05:03:55;;;;;;;6.03;5.20;;;14.80;99.90;;;14.50;81.33;101617.75;5094770;28;20471;-74
2023/09/05 05:06:28;;;;;;;6.18;5.57;;;14.80;99.90;;;14.41;82.91;101612.50;5094459;28;20972;-73
2023/09/05 05:09:00;;;;;;;7.57;5.38;;;14.70;99.90;;;14.44;82.52;101617.56;5094943;28;20459;-73
2023/09/05 05:11:32;;;;;;;6.40;5.80;;;14.70;99.90;;;14.34;82.68;101617.72;5094597;28;20417;-74
2023/09/05 05:14:06;;;;;;;6.65;5.35;;;14.70;99.90;;;14.37;83.14;101620.06;5094756;28;20966;-73
2023/09/05 05:16:38;;;;;;;7.72;5.85;;;14.70;99.90;;;14.38;83.72;101624.47;5101129;28;20476;-72
2023/09/05 05:19:10;;;;;;;5.63;5.00;;;14.60;99.90;;;14.47;82.94;101619.94;5101978;28;20423;-73
2023/09/05 05:21:42;;;;;;;6.15;5.55;;;14.80;99.90;;;14.52;82.94;101626.50;5103828;28;20492;-72
2023/09/05 05:24:14;;;;;;;6.83;5.47;;;14.80;99.90;;;14.41;83.14;101626.81;5103250;28;20507;-73
2023/09/05 05:26:48;;;;;;;6.78;5.75;;;14.70;99.90;;;14.46;84.64;101635.25;5097932;28;20764;-73
2023/09/05 05:29:21;;;;;;;7.47;5.70;;;14.80;99.90;;;14.51;83.90;101632.91;5094646;28;20495;-73
2023/09/05 05:31:53;;;;;;;6.78;5.90;;;14.80;99.90;;;14.56;83.42;101632.41;5094186;28;20474;-73
2023/09/05 05:34:24;;;;;;;10.73;5.68;;;14.90;99.90;;;14.62;83.78;101627.19;5094587;28;20503;-74
2023/09/05 05:36:56;;;;;;;11.18;5.78;;;15.00;99.90;;;14.67;82.78;101624.88;5094583;28;20903;-74
2023/09/05 05:39:28;;;;;;;10.00;5.60;;;15.10;99.90;;;14.70;83.39;101621.84;5094300;28;20472;-74
2023/09/05 05:42:00;;;;;;;6.65;5.60;;;15.10;99.90;;;14.71;84.10;101615.44;5093923;28;20503;-74
2023/09/05 05:44:34;;;;;;;7.90;5.95;;;15.10;99.90;;;14.69;84.81;101617.44;5093810;28;20511;-74
2023/09/05 05:47:06;;;;;;;8.32;6.07;;;15.00;99.90;;;14.71;84.57;101620.84;5094034;28;20469;-74
2023/09/05 05:49:37;;;;;;;9.13;5.72;;;15.10;99.90;;;14.72;85.08;101613.59;5093797;28;20869;-74
2023/09/05 05:52:10;;;;;;;6.68;5.60;;;15.10;99.90;;;14.79;84.79;101616.47;5094236;28;20455;-74
2023/09/05 05:54:42;;;;;;;7.72;6.00;;;15.10;99.90;;;14.81;84.86;101614.44;5093257;28;20873;-74
2023/09/05 05:57:14;;;;;;;7.97;5.80;;;15.20;99.90;;;14.84;84.91;101614.94;5094151;28;20459;-74
2023/09/05 05:59:47;;;;;;;9.20;6.20;;;15.20;99.90;;;14.87;84.97;101613.75;5093991;28;20545;-74
2023/09/05 06:02:19;;;;;;;7.53;5.63;;;15.30;99.90;;;14.88;84.37;101615.47;5093553;28;20429;-74
2023/09/05 06:04:51;;;;;;;7.05;6.07;;;15.30;99.90;;;14.90;85.21;101613.44;5093565;28;20424;-74
2023/09/05 06:07:23;;;;;;;8.88;5.90;;;15.30;99.90;;;14.94;85.06;101617.47;5093189;28;20986;-74
2023/09/05 06:09:55;;;;;;;8.02;6.30;;;15.40;99.90;;;15.00;85.91;101614.13;5093298;28;20923;-74
2023/09/05 06:12:27;;;;;;;7.60;5.90;;;15.40;99.90;;;15.04;85.50;101615.47;5093844;28;20511;-74
2023/09/05 06:15:01;;;;;;;8.70;5.77;;;15.50;99.90;;;15.06;85.70;101622.41;5093329;28;20485;-74
2023/09/05 06:17:32;;;;;;;9.93;6.18;;;15.50;99.90;;;15.12;85.46;101624.41;5092882;28;20877;-74
2023/09/05 06:20:05;;;;;;;7.32;5.55;;;15.60;99.90;;;15.17;85.72;101623.91;5093632;28;20420;-74
2023/09/05 06:22:37;;;;;;;6.85;5.57;;;15.70;99.90;;;15.21;84.43;101620.69;5092912;28;20417;-74
2023/09/05 06:25:10;;;;;;;6.93;5.28;;;15.70;99.90;;;15.27;84.56;101621.03;5093014;28;20945;-74
2023/09/05 06:27:43;;;;;;;7.83;5.43;;;15.80;99.90;;;15.31;84.69;101614.31;5093253;28;20961;-74
2023/09/05 06:30:18;;;;;;;7.00;5.18;;;15.80;99.90;;;15.36;84.96;101612.78;5093163;28;20852;-74
2023/09/05 06:32:50;;;;;;;7.38;5.40;;;15.90;99.90;;;15.44;85.65;101601.97;5093052;28;20495;-73
2023/09/05 06:35:22;;;;;;;6.95;5.28;;;16.00;99.90;;;15.50;85.74;101609.41;5093723;28;20420;-74
2023/09/05 06:37:56;;;;;;;9.17;5.30;;;16.00;99.90;;;15.57;86.10;101605.00;5093602;28;20475;-73
2023/09/05 06:40:28;;;;;;;8.40;5.70;;;16.10;99.90;;;15.64;86.09;101614.13;5092959;28;20420;-74
2023/09/05 06:43:00;;;;;;;7.03;4.88;;;16.20;99.90;;;15.71;86.12;101620.50;5092870;28;20511;-73
2023/09/05 06:45:34;;;;;;;7.75;4.97;;;16.20;99.90;;;15.70;85.32;101624.22;5093122;28;20421;-74
2023/09/05 06:48:06;;;;;;;5.78;5.18;;;16.30;99.90;;;15.76;85.74;101616.44;5092761;28;20421;-74
2023/09/05 06:50:38;;;;;;;6.30;4.97;;;16.30;99.90;;;15.80;86.28;101618.63;5092541;28;20917;-74
2023/09/05 06:53:11;;;;;;;6.72;5.00;;;16.50;99.90;;;15.90;86.24;101619.25;5093153;28;20435;-74
2023/09/05 06:55:43;;;;;;;7.22;4.85;;;16.50;99.90;;;15.93;86.46;101624.31;5093382;28;20482;-74
2023/09/05 06:58:15;;;;;;;6.53;4.75;;;16.50;99.90;;;16.01;86.24;101626.16;5092782;28;20489;-74
2023/09/05 07:00:51;;;;;;;6.37;4.90;;;16.60;99.90;;;16.08;85.62;101627.13;5092640;28;20454;-74
2023/09/05 07:03:24;;;;;;;7.93;5.15;;;16.70;99.90;;;16.14;86.44;101631.84;5092195;28;20425;-74
2023/09/05 07:05:57;;;;;;;6.00;4.95;;;16.70;99.90;;;16.22;86.37;101621.00;5092476;28;20458;-74
2023/09/05 07:08:38;;;;;;;6.15;4.82;;;16.90;99.90;;;16.35;86.25;101623.97;5092512;28;20417;-66
2023/09/05 07:11:10;;;;;;;7.97;4.72;;;17.00;99.90;;;16.42;84.19;101624.13;5093032;28;20424;-73
2023/09/05 07:13:42;;;;;;;6.47;4.72;;;17.10;99.90;;;16.50;84.63;101619.53;5093381;28;20780;-73
2023/09/05 07:16:15;;;;;;;6.55;4.10;;;17.10;99.90;;;16.63;83.69;101621.66;5092646;28;20463;-73
2023/09/05 07:18:47;;;;;;;5.67;4.50;;;17.30;99.90;;;16.75;84.03;101625.63;5092571;28;20873;-73
2023/09/05 07:21:19;;;;;;;7.17;4.27;;;17.40;99.90;;;16.83;82.31;101622.88;5093554;28;20217;-74
2023/09/05 07:23:51;;;;;;;6.72;3.88;;;17.50;99.90;;;16.97;81.10;101624.81;5091858;28;20835;-74
2023/09/05 07:26:23;;;;;;;7.25;4.13;;;17.70;99.90;;;17.03;81.64;101624.09;5092948;28;20508;-74
2023/09/05 07:28:55;;;;;;;5.03;3.58;;;17.80;99.90;;;17.09;82.24;101627.91;5092499;28;20447;-74
2023/09/05 07:31:31;;;;;;;7.05;3.67;;;17.70;99.90;;;17.11;81.68;101626.75;5092521;28;20503;-74
2023/09/05 07:34:03;;;;;;;5.53;3.58;;;17.90;99.90;;;17.19;81.28;101623.13;5092587;28;20428;-74
2023/09/05 07:36:36;;;;;;;6.25;3.50;;;17.90;99.90;;;17.26;82.07;101629.47;5091993;28;20425;-74
2023/09/05 07:39:10;;;;;;;7.70;3.53;;;18.00;99.90;;;17.46;80.15;101632.53;5091919;28;21018;-73
2023/09/05 07:41:41;;;;;;;3.80;3.28;;;18.20;99.90;;;17.54;80.70;101632.44;5092008;28;20960;-73
2023/09/05 07:44:13;;;;;;;5.13;3.20;;;18.30;99.90;;;17.62;79.20;101637.81;5092034;28;20424;-74
2023/09/05 07:46:46;;;;;;;4.97;3.05;;;18.40;99.90;;;17.71;78.47;101640.25;5092194;28;20448;-74
2023/09/05 07:49:21;;;;;;;4.70;2.92;;;18.40;99.90;;;17.90;75.88;101640.75;5092364;28;20504;-74
2023/09/05 07:51:54;;;;;;;4.22;3.00;;;18.70;99.90;;;17.91;77.20;101635.13;5091837;28;20884;-74
2023/09/05 07:54:26;;;;;;;4.93;3.25;;;18.70;99.90;;;17.95;77.03;101632.88;5092213;28;20433;-74
2023/09/05 07:56:58;;;;;;;4.18;3.00;;;18.70;99.90;;;18.04;76.17;101634.47;5092152;28;20527;-74
2023/09/05 07:59:31;;;;;;;4.75;2.80;;;18.80;99.90;;;18.10;76.24;101633.72;5092631;28;20501;-74
2023/09/05 08:02:05;;;;;;;3.75;2.90;;;18.80;99.90;;;18.19;75.92;101628.00;5092505;28;20427;-74
2023/09/05 08:04:37;;;;;;;4.45;2.88;;;19.00;99.90;;;18.39;74.23;101624.72;5092032;28;20490;-74
2023/09/05 08:07:09;;;;;;;4.88;3.15;;;19.10;99.90;;;18.48;74.71;101635.28;5092095;28;20511;-74
2023/09/05 08:09:41;;;;;;;4.38;3.00;;;19.20;99.90;;;18.55;74.69;101628.09;5091868;28;20428;-73
2023/09/05 08:12:13;;;;;;;5.45;2.85;;;19.30;99.90;;;18.72;74.08;101634.97;5091993;28;20452;-74
2023/09/05 08:14:45;;;;;;;5.95;3.03;;;19.50;99.90;;;18.83;74.13;101628.19;5096913;28;20416;-73
2023/09/05 08:17:18;;;;;;;4.63;2.92;;;19.70;99.90;;;18.96;74.28;101632.91;5102848;28;20469;-73
2023/09/05 08:19:50;;;;;;;5.00;2.80;;;19.70;99.90;;;19.01;73.29;101630.44;5095725;28;20881;-74
2023/09/05 08:22:22;;;;;;;8.65;2.90;;;19.80;99.90;;;19.15;72.18;101632.25;5096507;28;20463;-74
2023/09/05 08:24:54;;;;;;;5.72;2.80;;;19.80;99.90;;;19.21;72.87;101628.78;5095216;28;20443;-74
2023/09/05 08:27:28;;;;;;;4.57;2.70;;;20.00;99.90;;;19.29;71.64;101633.22;5095486;28;20478;-74
2023/09/05 08:30:00;;;;;;;6.45;2.50;;;20.00;99.90;;;19.35;71.46;101629.72;5096417;28;20425;-74
2023/09/05 08:32:34;;;;;;;3.20;2.50;;;20.10;99.90;;;19.71;67.71;101631.31;5095879;28;20509;-74
2023/09/05 08:35:09;;;;;;;3.60;2.70;;;20.40;99.90;;;19.66;69.01;101628.31;5095500;28;20426;-74
2023/09/05 08:37:41;;;;;;;3.92;2.60;;;20.40;99.90;;;19.71;69.44;101625.03;5095752;28;20465;-74
2023/09/05 08:40:13;;;;;;;3.42;2.67;;;20.40;99.90;;;19.77;67.55;101623.38;5094840;28;20535;-74
2023/09/05 08:42:47;;;;;;;4.20;2.50;;;20.50;99.40;;;19.86;67.42;101627.63;5095465;28;20475;-74
2023/09/05 08:45:23;;;;;;;5.18;2.53;;;20.70;99.20;;;19.95;67.74;101631.84;5095016;28;20503;-74
2023/09/05 08:47:56;;;;;;;3.60;2.60;;;20.70;99.30;;;20.23;66.39;101630.78;5094709;28;20542;-74
2023/09/05 08:50:36;;;;;;;3.03;2.50;;;21.10;98.30;;;20.80;62.28;101631.41;5095154;28;20519;-74
2023/09/05 08:53:15;;;;;;;2.47;2.27;;;21.50;96.50;;;20.81;63.95;101624.94;5096167;28;20605;-74
2023/09/05 08:55:48;;;;;;;2.85;2.40;;;21.50;97.30;;;20.81;64.05;101627.66;5094779;28;20596;-74
2023/09/05 08:58:23;;;;;;;3.97;2.60;;;21.60;97.40;;;20.72;63.11;101619.66;5094998;28;20516;-74
2023/09/05 09:00:55;;;;;;;3.53;2.30;;;21.40;96.50;;;21.01;60.43;101623.09;5094753;28;20433;-74
2023/09/05 09:03:30;;;;;;;5.05;2.35;;;21.70;95.50;;;21.53;58.00;101627.75;5094963;28;20440;-74
2023/09/05 09:06:02;;;;;;;5.10;2.40;;;22.20;97.70;;;21.72;56.61;101622.28;5094391;28;20456;-74
2023/09/05 09:08:43;;;;;;;3.55;2.30;;;22.30;93.40;;;21.66;56.94;101619.56;5094629;28;20424;-74
2023/09/05 09:11:15;;;;;;;4.20;2.42;;;22.40;93.30;;;21.67;58.70;101618.53;5094869;28;20413;-74
2023/09/05 09:13:49;;;;;;;2.92;2.30;;;22.40;93.90;;;21.95;55.24;101616.38;5094882;28;20428;-74
2023/09/05 09:16:22;;;;;;;2.87;2.27;;;22.60;92.10;;;22.31;54.04;101621.31;5094917;28;20441;-74
2023/09/05 09:19:05;;;;;;;3.78;2.53;;;22.90;91.20;;;22.00;58.58;101623.94;5094280;28;20447;-73
2023/09/05 09:21:37;;;;;;;3.60;2.60;;;22.70;93.70;;;21.97;58.64;101625.19;5095076;28;20427;-73
2023/09/05 09:24:16;;;;;;;3.28;2.40;;;22.70;93.60;;;22.04;59.20;101620.56;5094431;28;20460;-73
2023/09/05 09:26:48;;;;;;;2.80;2.20;;;22.70;94.00;;;22.20;58.89;101616.50;5094612;28;20504;-74
2023/09/05 09:29:20;;;;;;;3.50;2.13;;;22.90;93.80;;;22.21;58.68;101615.47;5094200;28;20417;-73
2023/09/05 09:31:58;;;;;;;3.30;2.30;;;22.90;93.60;;;22.52;55.39;101618.28;5093884;28;20431;-74
2023/09/05 09:34:35;;;;;;;3.53;2.38;;;23.20;92.10;;;22.60;57.34;101619.94;5094348;28;20416;-74
2023/09/05 09:37:08;;;;;;;4.47;2.10;;;23.30;93.10;;;22.54;58.12;101618.88;5094101;28;20421;-74
2023/09/05 09:39:39;;;;;;;3.10;2.30;;;23.20;93.20;;;22.59;57.89;101608.16;5094027;28;20447;-74
2023/09/05 09:42:13;;;;;;;3.35;2.22;;;23.20;93.00;;;22.72;57.14;101612.75;5094066;28;20444;-74
2023/09/05 09:44:48;;;;;;;3.03;2.10;;;23.40;92.60;;;23.09;52.98;101608.28;5094724;28;20308;-74
2023/09/05 09:47:23;;;;;;;3.78;2.30;;;23.70;90.50;;;23.09;55.38;101611.03;5094879;28;20470;-74
2023/09/05 09:49:57;;;;;;;3.50;2.13;;;23.60;91.80;;;23.12;56.21;101605.09;5094277;28;20436;-74
2023/09/05 09:52:34;;;;;;;3.83;2.38;;;23.80;92.10;;;23.25;55.37;101603.09;5093778;28;20448;-74
2023/09/05 09:55:12;;;;;;;4.80;2.40;;;23.90;91.60;;;23.35;53.90;101599.91;5093453;28;20458;-75
2023/09/05 09:58:05;;;;;;;3.72;2.30;;;24.00;90.60;;;23.38;53.39;101593.97;5094456;28;20504;-73
2023/09/05 10:00:40;;;;;;;5.30;2.23;;;24.00;90.30;;;23.55;53.21;101597.84;5094606;28;20452;-73
2023/09/05 10:03:13;;;;;;;3.77;2.00;;;24.00;90.60;;;23.76;52.30;101593.84;5093930;28;20424;-74
2023/09/05 10:05:48;;;;;;;3.42;2.20;;;24.30;90.00;;;23.92;53.30;101597.88;5093249;28;20802;-74
2023/09/05 10:08:22;;;;;;;2.30;2.00;;;24.50;90.30;;;23.99;53.39;101604.97;5093121;28;20916;-74
2023/09/05 10:10:55;;;;;;;4.38;2.10;;;24.70;90.30;;;23.99;53.85;101601.38;5093432;28;20416;-74
2023/09/05 10:13:33;;;;;;;2.85;2.05;;;24.60;90.30;;;24.08;54.10;101602.75;5094513;28;20189;-74
2023/09/05 10:16:08;;;;;;;3.13;2.00;;;24.60;90.90;;;24.17;53.22;101591.31;5093297;28;20460;-73
2023/09/05 10:18:43;;;;;;;3.80;2.10;;;24.80;90.10;;;24.46;51.38;101606.09;5093049;28;20891;-74
2023/09/05 10:21:19;;;;;;;3.20;2.00;;;25.00;87.90;;;24.58;49.69;101593.31;5092875;28;20834;-74
2023/09/05 10:23:53;;;;;;;2.88;2.17;;;25.00;85.40;;;24.58;51.14;101601.50;5093171;28;20532;-74
2023/09/05 10:26:25;;;;;;;3.03;1.88;;;25.10;87.10;;;24.68;50.68;101595.47;5093182;28;20424;-74
2023/09/05 10:28:58;;;;;;;3.17;2.30;;;25.20;86.30;;;24.97;47.89;101588.31;5094945;28;20232;-74
2023/09/05 10:31:33;;;;;;;4.50;1.92;;;25.40;83.70;;;24.92;51.09;101589.03;5093372;28;20424;-74
2023/09/05 10:34:07;;;;;;;3.42;1.83;;;25.40;86.70;;;25.37;49.21;101588.50;5093778;28;20480;-74
2023/09/05 10:36:46;;;;;;;4.30;2.00;;;25.80;84.50;;;25.23;48.29;101580.53;5093230;28;20433;-74
2023/09/05 10:39:24;;;;;;;2.95;2.03;;;25.70;83.40;;;25.35;47.04;101571.44;5093010;28;20437;-74